Архив погоды в Ногликах

Метеограмма Ноглики
Вторник, 19 Июня
Время местн. Темп Ветер Видим Явления Облачность нижн/средн/верх Атм. давл. Влжн Точка росы ВНГО R Сост. почвы Tg s
Напр Скр Прв ур.ст ур.м изм
16:00 +5.6° Ю-В 4 7 10 км слабый ливневый дождь облачно 751 755 -1 100% +5.6° 300 м - - - -
13:00 +5.8° В,Ю-В 2 5 10 км слабый ливневый дождь облачно 752 756 -0.6 99% +5.6° 300 м - - - -
10:00 +5.9° В,С-В 1 2 10 км слабый ливневый дождь облачно 753 756 -0.4 97% +5.4° 300 м - - - -
07:00 +5.1° В 1 1 10 км - облачно 753 757 0 95% +4.4° 300 м 0 Влажная (без луж) - -
04:00 +4.2° В,Ю-В 1 3 2 км дымка {туман} облачно 753 757 -0.2 99% +4° 1 км - - - -
01:00 +4.8° В,С-В 1 2 500 м туман неба не видно 753 757 -0.2 100% +4.8° - - - - -
Понедельник, 18 Июня
Время местн. Темп Ветер Видим Явления Облачность нижн/средн/верх Атм. давл. Влжн Точка росы ВНГО R Сост. почвы Tg s
Напр Скр Прв ур.ст ур.м изм
22:00 +4.6° Ю,Ю-В 1 5 1 км дымка облачно 754 757 +0.7 99% +4.4° 200 м - - - -
19:00 +6° В,Ю-В 3 7 10 км - облачно 753 756 +0.5 100% +6° 300 м 0 - - -
16:00 +8.5° Ю-В 4 6 более 50 км - преимущественно облачно 753 756 -0.5 79% +5.1° 1 км - - - -
13:00 +8.7° В,Ю-В 3 4 50 км - облачно 753 757 -0.3 80% +5.4° 1 км - - - -
10:00 +6.7° Ю-В 2 3 20 км - облачно 753 757 -0.2 100% +6.7° 600 м - - - -
07:00 +5.8° Ю,Ю-В 1 2 20 км небо без изменений {ливневые осадки} облачно 754 757 +0.1 99% +5.6° 600 м 0.4 Влажная (без луж) - -
04:00 +4.8° В,С-В 1 3 10 км слабый ливневый дождь облачно 753 757 -0.5 97% +4.3° 600 м - - - -
01:00 +4.2° В 1 2 10 км - облачно 753 758 -0.4 103% +4.6° более 2.5 км - - - -
Воскресенье, 17 Июня
Время местн. Темп Ветер Видим Явления Облачность нижн/средн/верх Атм. давл. Влжн Точка росы ВНГО R Сост. почвы Tg s
Напр Скр Прв ур.ст ур.м изм
22:00 +4.6° Ю-В 2 3 10 км - облачно 754 758 +0.5 100% +4.6° - - - - -
19:00 +7.4° В,Ю-В 3 5 50 км - облачно с прояснениями 754 758 +0.1 78% +3.8° - 0 - - -
16:00 +8.3° В,Ю-В 5 10 более 50 км - облачно 754 758 -0.5 72% +3.6° более 2.5 км - - - -
13:00 +12.3° Ю-В 6 8 50 км - переменная облачность 755 758 -0.7 57% +4° более 2.5 км - - - -
10:00 +14.1° С-З 1 4 50 км - переменная облачность 755 759 -0.8 51% +4.2° более 2.5 км - - - -
07:00 +7.7° Ю-З 2 4 50 км - переменная облачность 756 760 0 77% +3.9° более 2.5 км 0 Сухая (без трещин) - -
04:00 +2.3° Ю,Ю-В 2 3 4 км дымка переменная облачность 756 760 -0.4 98% +2° более 2.5 км - - - -
01:00 +4.5° Ю-В 1 2 10 км - переменная облачность 756 760 -0.2 100% +4.5° 1 км - - - -
Суббота, 16 Июня
Время местн. Темп Ветер Видим Явления Облачность нижн/средн/верх Атм. давл. Влжн Точка росы ВНГО R Сост. почвы Tg s
Напр Скр Прв ур.ст ур.м изм
22:00 +8.1° Ю 1 3 10 км - переменная облачность 757 760 +0.2 81% +5.1° 1 км - - - -
19:00 +13.6° В,Ю-В 2 8 более 50 км - облачно с прояснениями 756 760 -0.5 55% +4.8° 1 км 0 - - -
16:00 +15.9° В,Ю-В 5 7 более 50 км - преимущественно облачно 757 760 -0.8 35% +0.6° 1 км - - - -
13:00 +18° Ю 2 4 50 км - преимущественно облачно 758 761 -1.1 30% 600 м - - - -